Terminal Aerodrome Forecast
Issued by NWS

Current Version | Previous Version | Graphics & Text | Print | Product List | Glossary On
Versions: 1 2 3 4 5 6 7 8 9 10 11 12 13 14 15 16 17 18 19 20 21 22 23 24 25 26 27 28 29 30 31
000
FTUS41 KRLX 171738
TAFCKB
TAF
KCKB 171738Z 1718/1818 21005KT P6SM BKN035
     FM172100 22006KT 3SM TSRA BKN025CB
     FM180000 19004KT P6SM SCT040
     FM180500 20004KT 3SM SHRA BKN025
     FM180700 VRB03KT P6SM OVC030
     FM180900 22005KT P6SM OVC008
     FM181600 23006KT P6SM BKN025=

USA.gov is the U.S. government's official web portal to all federal, state and local government web resources and services.